El Hierro > ESTACION METEOROLÓGICA Frontera

DATOS ACTUALES Online

Ultima actulizacion 33 minutos

20.6 ºC

Temperatura

84

Humedad (%)

981.81

Presión (mb)

3.7

Precipitación (mm)

9.2 O

Viento (Km/h)

DATOS DIARIOS

Temperatura últimas 24 horas (ºC)

Humedad últimas 24 horas (%)

Presión atmosférica últimas 24 horas (mb)

Precipitaciones últimas 23 horas (mm)

Viento últimas 24 horas (Km/h)

Hora Temperatura (°C) ºC Precipitación (mm) mm Presión (mb) mb Humedad (%) % Viento (Km/h) km/h
24 - 22:00 22.5 0 985 63 10.8 SW
24 - 23:00 22.8 0 986 60 4.9 SO
25 - 00:00 22.1 0 985 66 10.2 S
25 - 01:00 21.8 0 984 68 10.1 SW
25 - 02:00 23.6 0 984 60 43.2 SO
25 - 03:00 22.8 0 984 66 21.1 SW
25 - 04:00 22.3 0 983 68 14.3 SW
25 - 05:00 22 0 982 70 7 S
25 - 06:00 22.3 0 982 70 25.6 O
25 - 07:00 21.8 0.1 983 72 8.3 SO
25 - 08:00 20.7 0.2 984 77 7.3 SO
25 - 09:00 20.7 0.7 984 79 2.3 SW
25 - 10:00 20.5 1.5 985 82 2.7 W
25 - 11:00 19.8 1.9 985 84 12.1 W
25 - 12:00 19.9 2.2 985 85 7.1 W
25 - 13:00 20 2.4 985 84 5.6 NW
25 - 14:00 20.3 2.6 984 85 7.8 NW
25 - 15:00 20.4 2.8 983 85 4.4 NW
25 - 16:00 20.2 3 983 85 4.3 SW
25 - 17:00 20.7 3.2 983 84 4.7 NW
25 - 18:00 20.6 3.5 982 86 3.3 NO
25 - 19:00 20.6 3.6 982 85 3.7 NW
25 - 20:00 20.7 3.6 982 84 5.6 SO
25 - 21:00 20.7 3.7 982 85 6.6 S
25 - 22:00 20.6 3.7 982 84 9.2 O
Apalmet utiliza cookies propias y de terceros para mejorar la usabilidad y la experiencia web. Política de cookies.